SPJL

Inca Manco Capac International Airport

Airport
ICAO code
SPJL
IATA Code
JUL
Summary
ICAO Region
CARSAM
ICAO Territory
Location

Viyupata, Puno

Serving
Juliaca
Elevation
12552 ft
Coordinates
15° 28' 15" S , 70° 9' 43" W
KCC
Metar
SPJL 222200Z 28006KT CAVOK 18/M12 Q1033 RMK TX21.2 BIRD HAZARD RWY 12/30 PP000

High-elevation airport serving the city of Juliaca, thirty minutes from the city of Puno at Titicaca Lake.

Climatology

Subtropical Highland climate (Köppen climate classification Cwb).

Runways

Designator Length Width Surface Rops
12/30 4200 46 ASP No/No

Airport map

Aerial View

SKYbrary Partners:

Safety knowledge contributed by: